sensor_id;sensor_type;location;lat;lon;timestamp;P1;durP1;ratioP1;P2;durP2;ratioP2
69912;SDS011;57198;52.082;5.108;2023-03-01T00:01:21;10.35;;;9.40;;
69912;SDS011;57198;52.082;5.108;2023-03-01T00:03:49;10.52;;;8.98;;
69912;SDS011;57198;52.082;5.108;2023-03-01T00:06:16;9.25;;;8.45;;
69912;SDS011;57198;52.082;5.108;2023-03-01T00:08:44;9.60;;;8.60;;
69912;SDS011;57198;52.082;5.108;2023-03-01T00:11:25;10.65;;;8.30;;
69912;SDS011;57198;52.082;5.108;2023-03-01T00:13:53;8.38;;;7.57;;
69912;SDS011;57198;52.082;5.108;2023-03-01T00:16:23;8.35;;;7.55;;
69912;SDS011;57198;52.082;5.108;2023-03-01T00:18:50;9.05;;;8.20;;
69912;SDS011;57198;52.082;5.108;2023-03-01T00:21:19;10.82;;;8.07;;
69912;SDS011;57198;52.082;5.108;2023-03-01T00:23:48;9.65;;;8.50;;
69912;SDS011;57198;52.082;5.108;2023-03-01T00:26:16;8.50;;;7.60;;
69912;SDS011;57198;52.082;5.108;2023-03-01T00:28:44;8.80;;;7.65;;
69912;SDS011;57198;52.082;5.108;2023-03-01T00:31:12;8.27;;;7.38;;
69912;SDS011;57198;52.082;5.108;2023-03-01T00:33:40;9.43;;;8.05;;
69912;SDS011;57198;52.082;5.108;2023-03-01T00:36:08;9.52;;;8.07;;
69912;SDS011;57198;52.082;5.108;2023-03-01T00:38:36;11.95;;;8.82;;
69912;SDS011;57198;52.082;5.108;2023-03-01T00:41:04;8.27;;;7.57;;
69912;SDS011;57198;52.082;5.108;2023-03-01T00:43:32;9.05;;;8.15;;
69912;SDS011;57198;52.082;5.108;2023-03-01T00:46:07;8.07;;;6.85;;
69912;SDS011;57198;52.082;5.108;2023-03-01T00:48:35;8.20;;;7.40;;
69912;SDS011;57198;52.082;5.108;2023-03-01T00:51:10;10.65;;;7.82;;
69912;SDS011;57198;52.082;5.108;2023-03-01T00:53:38;8.55;;;7.75;;
69912;SDS011;57198;52.082;5.108;2023-03-01T00:56:06;9.40;;;7.82;;
69912;SDS011;57198;52.082;5.108;2023-03-01T00:58:34;8.77;;;7.45;;
69912;SDS011;57198;52.082;5.108;2023-03-01T01:01:11;10.40;;;8.65;;
69912;SDS011;57198;52.082;5.108;2023-03-01T01:04:02;8.18;;;7.40;;
69912;SDS011;57198;52.082;5.108;2023-03-01T01:06:31;9.00;;;7.30;;
69912;SDS011;57198;52.082;5.108;2023-03-01T01:08:59;8.98;;;8.10;;
69912;SDS011;57198;52.082;5.108;2023-03-01T01:11:28;9.82;;;8.82;;
69912;SDS011;57198;52.082;5.108;2023-03-01T01:13:56;9.82;;;8.80;;
69912;SDS011;57198;52.082;5.108;2023-03-01T01:16:24;10.55;;;9.55;;
69912;SDS011;57198;52.082;5.108;2023-03-01T01:18:52;13.15;;;9.23;;
69912;SDS011;57198;52.082;5.108;2023-03-01T01:21:20;10.07;;;9.07;;
69912;SDS011;57198;52.082;5.108;2023-03-01T01:23:49;10.50;;;9.40;;
69912;SDS011;57198;52.082;5.108;2023-03-01T01:26:21;9.75;;;8.85;;
69912;SDS011;57198;52.082;5.108;2023-03-01T01:28:49;8.57;;;7.75;;
69912;SDS011;57198;52.082;5.108;2023-03-01T01:31:17;9.60;;;8.60;;
69912;SDS011;57198;52.082;5.108;2023-03-01T01:33:44;9.93;;;8.73;;
69912;SDS011;57198;52.082;5.108;2023-03-01T01:36:12;9.38;;;7.95;;
69912;SDS011;57198;52.082;5.108;2023-03-01T01:38:39;10.40;;;9.40;;
69912;SDS011;57198;52.082;5.108;2023-03-01T01:41:08;9.43;;;8.52;;
69912;SDS011;57198;52.082;5.108;2023-03-01T01:43:41;10.95;;;8.95;;
69912;SDS011;57198;52.082;5.108;2023-03-01T01:48:40;9.50;;;7.75;;
69912;SDS011;57198;52.082;5.108;2023-03-01T01:51:17;9.80;;;8.80;;
69912;SDS011;57198;52.082;5.108;2023-03-01T01:53:46;12.15;;;8.15;;
69912;SDS011;57198;52.082;5.108;2023-03-01T01:56:15;10.07;;;9.00;;
69912;SDS011;57198;52.082;5.108;2023-03-01T01:58:44;10.85;;;8.90;;
69912;SDS011;57198;52.082;5.108;2023-03-01T02:01:11;10.90;;;9.77;;
69912;SDS011;57198;52.082;5.108;2023-03-01T02:03:39;10.77;;;9.50;;
69912;SDS011;57198;52.082;5.108;2023-03-01T02:08:38;10.15;;;9.13;;
69912;SDS011;57198;52.082;5.108;2023-03-01T02:11:05;9.45;;;8.35;;
69912;SDS011;57198;52.082;5.108;2023-03-01T02:13:33;9.23;;;8.23;;
69912;SDS011;57198;52.082;5.108;2023-03-01T02:16:04;12.38;;;9.05;;
69912;SDS011;57198;52.082;5.108;2023-03-01T02:18:32;9.63;;;8.57;;
69912;SDS011;57198;52.082;5.108;2023-03-01T02:23:48;11.18;;;9.05;;
69912;SDS011;57198;52.082;5.108;2023-03-01T02:29:03;11.45;;;9.07;;
69912;SDS011;57198;52.082;5.108;2023-03-01T02:31:31;9.52;;;8.57;;
69912;SDS011;57198;52.082;5.108;2023-03-01T02:34:21;10.30;;;9.02;;
69912;SDS011;57198;52.082;5.108;2023-03-01T02:36:53;9.05;;;8.15;;
69912;SDS011;57198;52.082;5.108;2023-03-01T02:39:23;10.65;;;9.55;;
69912;SDS011;57198;52.082;5.108;2023-03-01T02:41:53;11.73;;;9.95;;
69912;SDS011;57198;52.082;5.108;2023-03-01T02:44:21;12.43;;;9.40;;
69912;SDS011;57198;52.082;5.108;2023-03-01T02:46:50;11.18;;;10.05;;
69912;SDS011;57198;52.082;5.108;2023-03-01T02:49:23;11.15;;;9.95;;
69912;SDS011;57198;52.082;5.108;2023-03-01T02:54:43;10.63;;;9.68;;
69912;SDS011;57198;52.082;5.108;2023-03-01T02:57:11;11.05;;;9.95;;
69912;SDS011;57198;52.082;5.108;2023-03-01T02:59:39;14.13;;;10.50;;
69912;SDS011;57198;52.082;5.108;2023-03-01T03:05:23;12.10;;;10.10;;
69912;SDS011;57198;52.082;5.108;2023-03-01T03:07:55;11.43;;;10.30;;
69912;SDS011;57198;52.082;5.108;2023-03-01T03:10:24;11.27;;;10.13;;
69912;SDS011;57198;52.082;5.108;2023-03-01T03:12:54;13.30;;;9.68;;
69912;SDS011;57198;52.082;5.108;2023-03-01T03:15:22;11.15;;;10.05;;
69912;SDS011;57198;52.082;5.108;2023-03-01T03:17:50;11.95;;;10.35;;
69912;SDS011;57198;52.082;5.108;2023-03-01T03:20:18;12.40;;;11.20;;
69912;SDS011;57198;52.082;5.108;2023-03-01T03:22:46;10.80;;;9.70;;
69912;SDS011;57198;52.082;5.108;2023-03-01T03:25:14;14.38;;;9.88;;
69912;SDS011;57198;52.082;5.108;2023-03-01T03:27:42;10.52;;;9.43;;
69912;SDS011;57198;52.082;5.108;2023-03-01T03:30:11;10.27;;;9.25;;
69912;SDS011;57198;52.082;5.108;2023-03-01T03:32:39;10.80;;;8.98;;
69912;SDS011;57198;52.082;5.108;2023-03-01T03:35:08;10.98;;;9.88;;
69912;SDS011;57198;52.082;5.108;2023-03-01T03:37:37;12.82;;;9.50;;
69912;SDS011;57198;52.082;5.108;2023-03-01T03:40:23;11.40;;;8.88;;
69912;SDS011;57198;52.082;5.108;2023-03-01T03:42:50;10.07;;;9.00;;
69912;SDS011;57198;52.082;5.108;2023-03-01T03:45:18;10.95;;;9.20;;
69912;SDS011;57198;52.082;5.108;2023-03-01T03:47:45;10.23;;;9.02;;
69912;SDS011;57198;52.082;5.108;2023-03-01T03:50:13;11.40;;;9.85;;
69912;SDS011;57198;52.082;5.108;2023-03-01T03:52:41;9.38;;;7.97;;
69912;SDS011;57198;52.082;5.108;2023-03-01T03:55:09;9.88;;;8.93;;
69912;SDS011;57198;52.082;5.108;2023-03-01T03:57:37;11.10;;;10.00;;
69912;SDS011;57198;52.082;5.108;2023-03-01T04:00:07;10.57;;;9.18;;
69912;SDS011;57198;52.082;5.108;2023-03-01T04:02:40;11.73;;;9.70;;
69912;SDS011;57198;52.082;5.108;2023-03-01T04:05:09;12.23;;;9.85;;
69912;SDS011;57198;52.082;5.108;2023-03-01T04:07:37;11.60;;;9.45;;
69912;SDS011;57198;52.082;5.108;2023-03-01T04:10:06;9.15;;;8.20;;
69912;SDS011;57198;52.082;5.108;2023-03-01T04:12:34;11.23;;;9.07;;
69912;SDS011;57198;52.082;5.108;2023-03-01T04:15:03;10.10;;;8.77;;
69912;SDS011;57198;52.082;5.108;2023-03-01T04:17:40;10.40;;;9.38;;
69912;SDS011;57198;52.082;5.108;2023-03-01T04:20:08;10.45;;;8.20;;
69912;SDS011;57198;52.082;5.108;2023-03-01T04:22:37;10.63;;;9.02;;
69912;SDS011;57198;52.082;5.108;2023-03-01T04:25:05;9.30;;;8.40;;
69912;SDS011;57198;52.082;5.108;2023-03-01T04:27:33;9.10;;;7.82;;
69912;SDS011;57198;52.082;5.108;2023-03-01T04:30:01;8.55;;;7.47;;
69912;SDS011;57198;52.082;5.108;2023-03-01T04:32:28;9.10;;;7.80;;
69912;SDS011;57198;52.082;5.108;2023-03-01T04:34:56;10.25;;;9.13;;
69912;SDS011;57198;52.082;5.108;2023-03-01T04:37:23;9.23;;;8.30;;
69912;SDS011;57198;52.082;5.108;2023-03-01T04:39:53;9.15;;;8.25;;
69912;SDS011;57198;52.082;5.108;2023-03-01T04:42:20;11.02;;;9.93;;
69912;SDS011;57198;52.082;5.108;2023-03-01T04:44:48;10.68;;;9.52;;
69912;SDS011;57198;52.082;5.108;2023-03-01T04:47:17;11.65;;;10.38;;
69912;SDS011;57198;52.082;5.108;2023-03-01T04:49:44;11.38;;;9.38;;
69912;SDS011;57198;52.082;5.108;2023-03-01T04:52:12;12.18;;;10.45;;
69912;SDS011;57198;52.082;5.108;2023-03-01T04:54:39;13.13;;;10.23;;
69912;SDS011;57198;52.082;5.108;2023-03-01T04:57:06;11.65;;;10.45;;
69912;SDS011;57198;52.082;5.108;2023-03-01T04:59:34;11.38;;;9.90;;
69912;SDS011;57198;52.082;5.108;2023-03-01T05:02:02;10.68;;;9.68;;
69912;SDS011;57198;52.082;5.108;2023-03-01T05:04:30;11.80;;;10.02;;
69912;SDS011;57198;52.082;5.108;2023-03-01T05:06:57;10.98;;;9.88;;
69912;SDS011;57198;52.082;5.108;2023-03-01T05:09:25;12.43;;;10.55;;
69912;SDS011;57198;52.082;5.108;2023-03-01T05:11:52;11.40;;;10.30;;
69912;SDS011;57198;52.082;5.108;2023-03-01T05:14:19;12.40;;;9.55;;
69912;SDS011;57198;52.082;5.108;2023-03-01T05:16:47;12.80;;;9.55;;
69912;SDS011;57198;52.082;5.108;2023-03-01T05:19:14;10.82;;;9.43;;
69912;SDS011;57198;52.082;5.108;2023-03-01T05:21:42;11.93;;;10.57;;
69912;SDS011;57198;52.082;5.108;2023-03-01T05:24:28;12.43;;;10.30;;
69912;SDS011;57198;52.082;5.108;2023-03-01T05:26:56;11.77;;;10.35;;
69912;SDS011;57198;52.082;5.108;2023-03-01T05:29:24;11.70;;;9.50;;
69912;SDS011;57198;52.082;5.108;2023-03-01T05:31:52;14.00;;;10.27;;
69912;SDS011;57198;52.082;5.108;2023-03-01T05:34:53;12.82;;;9.68;;
69912;SDS011;57198;52.082;5.108;2023-03-01T05:37:13;18.77;;;10.35;;
69912;SDS011;57198;52.082;5.108;2023-03-01T05:39:41;10.48;;;9.40;;
69912;SDS011;57198;52.082;5.108;2023-03-01T05:42:10;10.82;;;9.70;;
69912;SDS011;57198;52.082;5.108;2023-03-01T05:44:38;11.50;;;9.82;;
69912;SDS011;57198;52.082;5.108;2023-03-01T05:47:05;11.68;;;10.43;;
69912;SDS011;57198;52.082;5.108;2023-03-01T05:49:33;11.40;;;10.15;;
69912;SDS011;57198;52.082;5.108;2023-03-01T05:52:04;14.45;;;10.93;;
69912;SDS011;57198;52.082;5.108;2023-03-01T05:54:31;12.52;;;10.20;;
69912;SDS011;57198;52.082;5.108;2023-03-01T05:56:59;15.43;;;10.73;;
69912;SDS011;57198;52.082;5.108;2023-03-01T05:59:29;13.50;;;10.85;;
69912;SDS011;57198;52.082;5.108;2023-03-01T06:01:56;15.43;;;10.75;;
69912;SDS011;57198;52.082;5.108;2023-03-01T06:04:23;12.27;;;10.23;;
69912;SDS011;57198;52.082;5.108;2023-03-01T06:06:51;15.13;;;10.95;;
69912;SDS011;57198;52.082;5.108;2023-03-01T06:09:18;11.82;;;9.88;;
69912;SDS011;57198;52.082;5.108;2023-03-01T06:11:46;11.25;;;9.15;;
69912;SDS011;57198;52.082;5.108;2023-03-01T06:14:13;13.55;;;10.55;;
69912;SDS011;57198;52.082;5.108;2023-03-01T06:16:40;16.33;;;11.70;;
69912;SDS011;57198;52.082;5.108;2023-03-01T06:19:08;12.27;;;10.35;;
69912;SDS011;57198;52.082;5.108;2023-03-01T06:21:36;12.93;;;10.68;;
69912;SDS011;57198;52.082;5.108;2023-03-01T06:24:04;12.02;;;10.27;;
69912;SDS011;57198;52.082;5.108;2023-03-01T06:26:33;17.65;;;10.63;;
69912;SDS011;57198;52.082;5.108;2023-03-01T06:29:01;11.40;;;9.40;;
69912;SDS011;57198;52.082;5.108;2023-03-01T06:31:28;15.23;;;10.65;;
69912;SDS011;57198;52.082;5.108;2023-03-01T06:33:55;15.27;;;9.77;;
69912;SDS011;57198;52.082;5.108;2023-03-01T06:36:23;11.95;;;10.18;;
69912;SDS011;57198;52.082;5.108;2023-03-01T06:38:50;12.20;;;9.43;;
69912;SDS011;57198;52.082;5.108;2023-03-01T06:41:17;12.18;;;9.85;;
69912;SDS011;57198;52.082;5.108;2023-03-01T06:43:44;12.15;;;10.32;;
69912;SDS011;57198;52.082;5.108;2023-03-01T06:46:12;11.95;;;9.90;;
69912;SDS011;57198;52.082;5.108;2023-03-01T06:48:39;13.00;;;10.95;;
69912;SDS011;57198;52.082;5.108;2023-03-01T06:51:07;11.30;;;9.80;;
69912;SDS011;57198;52.082;5.108;2023-03-01T06:53:34;10.52;;;9.43;;
69912;SDS011;57198;52.082;5.108;2023-03-01T06:56:01;12.30;;;10.73;;
69912;SDS011;57198;52.082;5.108;2023-03-01T06:58:29;12.70;;;11.35;;
69912;SDS011;57198;52.082;5.108;2023-03-01T07:00:56;15.30;;;11.20;;
69912;SDS011;57198;52.082;5.108;2023-03-01T07:03:23;10.77;;;9.50;;
69912;SDS011;57198;52.082;5.108;2023-03-01T07:05:51;11.40;;;9.88;;
69912;SDS011;57198;52.082;5.108;2023-03-01T07:08:18;12.50;;;10.43;;
69912;SDS011;57198;52.082;5.108;2023-03-01T07:10:46;13.50;;;9.95;;
69912;SDS011;57198;52.082;5.108;2023-03-01T07:13:13;14.05;;;10.23;;
69912;SDS011;57198;52.082;5.108;2023-03-01T07:15:42;13.13;;;10.70;;
69912;SDS011;57198;52.082;5.108;2023-03-01T07:18:10;13.85;;;10.43;;
69912;SDS011;57198;52.082;5.108;2023-03-01T07:20:37;14.52;;;10.85;;
69912;SDS011;57198;52.082;5.108;2023-03-01T07:23:05;11.98;;;10.70;;
69912;SDS011;57198;52.082;5.108;2023-03-01T07:25:32;13.32;;;10.65;;
69912;SDS011;57198;52.082;5.108;2023-03-01T07:28:00;13.93;;;10.15;;
69912;SDS011;57198;52.082;5.108;2023-03-01T07:30:27;15.77;;;11.07;;
69912;SDS011;57198;52.082;5.108;2023-03-01T07:32:55;15.95;;;10.73;;
69912;SDS011;57198;52.082;5.108;2023-03-01T07:35:24;15.10;;;11.13;;
69912;SDS011;57198;52.082;5.108;2023-03-01T07:37:52;13.57;;;11.15;;
69912;SDS011;57198;52.082;5.108;2023-03-01T07:40:20;17.63;;;12.35;;
69912;SDS011;57198;52.082;5.108;2023-03-01T07:42:47;15.48;;;11.73;;
69912;SDS011;57198;52.082;5.108;2023-03-01T07:45:14;17.65;;;12.55;;
69912;SDS011;57198;52.082;5.108;2023-03-01T07:47:42;14.68;;;10.18;;
69912;SDS011;57198;52.082;5.108;2023-03-01T07:50:09;12.13;;;10.13;;
69912;SDS011;57198;52.082;5.108;2023-03-01T07:52:37;15.00;;;10.68;;
69912;SDS011;57198;52.082;5.108;2023-03-01T07:55:04;13.32;;;10.90;;
69912;SDS011;57198;52.082;5.108;2023-03-01T07:57:31;12.68;;;10.23;;
69912;SDS011;57198;52.082;5.108;2023-03-01T07:59:59;12.40;;;11.05;;
69912;SDS011;57198;52.082;5.108;2023-03-01T08:02:26;12.38;;;9.27;;
69912;SDS011;57198;52.082;5.108;2023-03-01T08:04:53;12.13;;;9.57;;
69912;SDS011;57198;52.082;5.108;2023-03-01T08:07:21;11.15;;;9.48;;
69912;SDS011;57198;52.082;5.108;2023-03-01T08:09:48;11.07;;;9.93;;
69912;SDS011;57198;52.082;5.108;2023-03-01T08:12:15;11.50;;;9.40;;
69912;SDS011;57198;52.082;5.108;2023-03-01T08:14:43;12.05;;;9.55;;
69912;SDS011;57198;52.082;5.108;2023-03-01T08:17:12;12.63;;;10.43;;
69912;SDS011;57198;52.082;5.108;2023-03-01T08:19:40;13.48;;;9.80;;
69912;SDS011;57198;52.082;5.108;2023-03-01T08:22:07;10.35;;;8.95;;
69912;SDS011;57198;52.082;5.108;2023-03-01T08:24:35;11.98;;;9.63;;
69912;SDS011;57198;52.082;5.108;2023-03-01T08:27:02;16.05;;;9.85;;
69912;SDS011;57198;52.082;5.108;2023-03-01T08:29:32;11.80;;;9.18;;
69912;SDS011;57198;52.082;5.108;2023-03-01T08:32:00;14.27;;;9.55;;
69912;SDS011;57198;52.082;5.108;2023-03-01T08:34:28;12.52;;;8.50;;
69912;SDS011;57198;52.082;5.108;2023-03-01T08:36:55;10.77;;;8.65;;
69912;SDS011;57198;52.082;5.108;2023-03-01T08:39:22;12.90;;;7.47;;
69912;SDS011;57198;52.082;5.108;2023-03-01T08:41:49;9.38;;;7.95;;
69912;SDS011;57198;52.082;5.108;2023-03-01T08:44:17;8.98;;;7.22;;
69912;SDS011;57198;52.082;5.108;2023-03-01T08:46:44;7.88;;;7.07;;
69912;SDS011;57198;52.082;5.108;2023-03-01T08:49:13;8.05;;;7.07;;
69912;SDS011;57198;52.082;5.108;2023-03-01T08:51:41;9.95;;;8.40;;
69912;SDS011;57198;52.082;5.108;2023-03-01T08:54:14;6.97;;;6.32;;
69912;SDS011;57198;52.082;5.108;2023-03-01T08:56:41;8.88;;;7.47;;
69912;SDS011;57198;52.082;5.108;2023-03-01T08:59:10;9.15;;;6.70;;
69912;SDS011;57198;52.082;5.108;2023-03-01T09:01:37;7.68;;;6.85;;
69912;SDS011;57198;52.082;5.108;2023-03-01T09:04:06;7.95;;;7.20;;
69912;SDS011;57198;52.082;5.108;2023-03-01T09:06:33;8.10;;;6.88;;
69912;SDS011;57198;52.082;5.108;2023-03-01T09:09:02;7.97;;;6.57;;
69912;SDS011;57198;52.082;5.108;2023-03-01T09:11:29;11.93;;;7.60;;
69912;SDS011;57198;52.082;5.108;2023-03-01T09:13:57;8.07;;;6.90;;
69912;SDS011;57198;52.082;5.108;2023-03-01T09:16:24;14.30;;;7.85;;
69912;SDS011;57198;52.082;5.108;2023-03-01T09:18:52;9.48;;;6.95;;
69912;SDS011;57198;52.082;5.108;2023-03-01T09:21:20;8.57;;;7.60;;
69912;SDS011;57198;52.082;5.108;2023-03-01T09:24:05;10.07;;;6.68;;
69912;SDS011;57198;52.082;5.108;2023-03-01T09:26:32;8.27;;;7.47;;
69912;SDS011;57198;52.082;5.108;2023-03-01T09:29:00;10.57;;;7.53;;
69912;SDS011;57198;52.082;5.108;2023-03-01T09:31:27;9.25;;;8.05;;
69912;SDS011;57198;52.082;5.108;2023-03-01T09:33:54;10.27;;;8.10;;
69912;SDS011;57198;52.082;5.108;2023-03-01T09:36:22;8.75;;;7.85;;
69912;SDS011;57198;52.082;5.108;2023-03-01T09:38:51;14.93;;;7.88;;
69912;SDS011;57198;52.082;5.108;2023-03-01T09:44:36;12.75;;;7.38;;
69912;SDS011;57198;52.082;5.108;2023-03-01T09:47:05;8.53;;;5.83;;
69912;SDS011;57198;52.082;5.108;2023-03-01T09:49:36;7.15;;;6.20;;
69912;SDS011;57198;52.082;5.108;2023-03-01T09:54:34;6.25;;;5.43;;
69912;SDS011;57198;52.082;5.108;2023-03-01T10:02:29;7.30;;;4.70;;
69912;SDS011;57198;52.082;5.108;2023-03-01T10:05:13;9.10;;;4.57;;
69912;SDS011;57198;52.082;5.108;2023-03-01T10:07:53;4.50;;;3.97;;
69912;SDS011;57198;52.082;5.108;2023-03-01T10:12:53;5.53;;;3.97;;
69912;SDS011;57198;52.082;5.108;2023-03-01T10:15:33;7.68;;;3.72;;
69912;SDS011;57198;52.082;5.108;2023-03-01T10:18:04;3.95;;;3.55;;
69912;SDS011;57198;52.082;5.108;2023-03-01T10:20:48;7.45;;;3.42;;
69912;SDS011;57198;52.082;5.108;2023-03-01T10:23:18;3.67;;;3.35;;
69912;SDS011;57198;52.082;5.108;2023-03-01T10:25:55;6.50;;;3.20;;
69912;SDS011;57198;52.082;5.108;2023-03-01T10:30:51;9.77;;;2.72;;
69912;SDS011;57198;52.082;5.108;2023-03-01T10:33:26;5.13;;;2.80;;
69912;SDS011;57198;52.082;5.108;2023-03-01T10:35:54;5.50;;;2.55;;
69912;SDS011;57198;52.082;5.108;2023-03-01T10:38:22;3.27;;;2.70;;
69912;SDS011;57198;52.082;5.108;2023-03-01T10:40:50;5.57;;;2.72;;
69912;SDS011;57198;52.082;5.108;2023-03-01T10:43:18;3.53;;;2.63;;
69912;SDS011;57198;52.082;5.108;2023-03-01T10:45:46;6.05;;;2.83;;
69912;SDS011;57198;52.082;5.108;2023-03-01T10:48:17;7.82;;;2.97;;
69912;SDS011;57198;52.082;5.108;2023-03-01T10:50:47;5.43;;;2.40;;
69912;SDS011;57198;52.082;5.108;2023-03-01T10:55:58;4.75;;;2.47;;
69912;SDS011;57198;52.082;5.108;2023-03-01T10:58:27;6.55;;;2.83;;
69912;SDS011;57198;52.082;5.108;2023-03-01T11:00:56;4.25;;;2.80;;
69912;SDS011;57198;52.082;5.108;2023-03-01T11:03:25;8.87;;;2.97;;
69912;SDS011;57198;52.082;5.108;2023-03-01T11:06:04;5.18;;;3.10;;
69912;SDS011;57198;52.082;5.108;2023-03-01T11:08:34;15.45;;;3.65;;
69912;SDS011;57198;52.082;5.108;2023-03-01T11:13:52;7.68;;;3.22;;
69912;SDS011;57198;52.082;5.108;2023-03-01T11:16:24;8.50;;;3.10;;
69912;SDS011;57198;52.082;5.108;2023-03-01T11:18:56;9.52;;;3.60;;
69912;SDS011;57198;52.082;5.108;2023-03-01T11:21:24;24.50;;;4.40;;
69912;SDS011;57198;52.082;5.108;2023-03-01T11:23:52;5.35;;;3.70;;
69912;SDS011;57198;52.082;5.108;2023-03-01T11:26:19;4.22;;;2.40;;
69912;SDS011;57198;52.082;5.108;2023-03-01T11:28:49;4.43;;;2.00;;
69912;SDS011;57198;52.082;5.108;2023-03-01T11:31:17;4.40;;;2.50;;
69912;SDS011;57198;52.082;5.108;2023-03-01T11:36:26;2.60;;;2.40;;
69912;SDS011;57198;52.082;5.108;2023-03-01T11:38:56;2.72;;;1.98;;
69912;SDS011;57198;52.082;5.108;2023-03-01T11:41:25;3.87;;;2.40;;
69912;SDS011;57198;52.082;5.108;2023-03-01T11:44:01;3.72;;;2.60;;
69912;SDS011;57198;52.082;5.108;2023-03-01T11:46:36;11.00;;;3.28;;
69912;SDS011;57198;52.082;5.108;2023-03-01T11:51:42;6.47;;;3.10;;
69912;SDS011;57198;52.082;5.108;2023-03-01T11:54:15;8.13;;;3.40;;
69912;SDS011;57198;52.082;5.108;2023-03-01T11:56:46;7.50;;;3.25;;
69912;SDS011;57198;52.082;5.108;2023-03-01T11:59:31;4.47;;;3.78;;
69912;SDS011;57198;52.082;5.108;2023-03-01T12:07:17;8.07;;;3.50;;
69912;SDS011;57198;52.082;5.108;2023-03-01T12:23:45;5.32;;;2.25;;
69912;SDS011;57198;52.082;5.108;2023-03-01T12:33:54;2.03;;;1.73;;
69912;SDS011;57198;52.082;5.108;2023-03-01T12:36:31;3.20;;;2.08;;
69912;SDS011;57198;52.082;5.108;2023-03-01T12:41:39;2.33;;;1.65;;
69912;SDS011;57198;52.082;5.108;2023-03-01T12:44:20;1.85;;;1.73;;
69912;SDS011;57198;52.082;5.108;2023-03-01T12:47:35;3.47;;;2.13;;
69912;SDS011;57198;52.082;5.108;2023-03-01T12:49:42;4.50;;;2.30;;
69912;SDS011;57198;52.082;5.108;2023-03-01T12:54:39;5.20;;;2.08;;
69912;SDS011;57198;52.082;5.108;2023-03-01T12:57:12;1.88;;;1.70;;
69912;SDS011;57198;52.082;5.108;2023-03-01T13:13:00;8.77;;;2.40;;
69912;SDS011;57198;52.082;5.108;2023-03-01T13:15:30;6.55;;;2.80;;
69912;SDS011;57198;52.082;5.108;2023-03-01T13:20:33;4.50;;;3.00;;
69912;SDS011;57198;52.082;5.108;2023-03-01T13:25:34;2.50;;;2.30;;
69912;SDS011;57198;52.082;5.108;2023-03-01T13:30:54;5.22;;;2.67;;
69912;SDS011;57198;52.082;5.108;2023-03-01T13:35:56;4.75;;;2.58;;
69912;SDS011;57198;52.082;5.108;2023-03-01T13:41:15;6.00;;;2.78;;
69912;SDS011;57198;52.082;5.108;2023-03-01T13:43:44;4.80;;;2.90;;
69912;SDS011;57198;52.082;5.108;2023-03-01T13:46:18;3.78;;;2.85;;
69912;SDS011;57198;52.082;5.108;2023-03-01T13:48:48;4.28;;;2.75;;
69912;SDS011;57198;52.082;5.108;2023-03-01T13:51:20;3.40;;;3.10;;
69912;SDS011;57198;52.082;5.108;2023-03-01T13:53:48;2.85;;;2.58;;
69912;SDS011;57198;52.082;5.108;2023-03-01T13:58:53;3.88;;;3.20;;
69912;SDS011;57198;52.082;5.108;2023-03-01T14:01:31;5.75;;;2.80;;
69912;SDS011;57198;52.082;5.108;2023-03-01T14:03:59;4.97;;;2.67;;
69912;SDS011;57198;52.082;5.108;2023-03-01T14:06:28;5.18;;;2.97;;
69912;SDS011;57198;52.082;5.108;2023-03-01T14:14:42;4.45;;;2.30;;
69912;SDS011;57198;52.082;5.108;2023-03-01T14:19:54;4.53;;;2.53;;
69912;SDS011;57198;52.082;5.108;2023-03-01T14:22:24;7.68;;;3.13;;
69912;SDS011;57198;52.082;5.108;2023-03-01T14:24:58;3.38;;;2.72;;
69912;SDS011;57198;52.082;5.108;2023-03-01T14:27:35;4.57;;;3.03;;
69912;SDS011;57198;52.082;5.108;2023-03-01T14:30:04;3.60;;;3.23;;
69912;SDS011;57198;52.082;5.108;2023-03-01T14:32:38;4.82;;;3.33;;
69912;SDS011;57198;52.082;5.108;2023-03-01T14:35:19;4.75;;;3.50;;
69912;SDS011;57198;52.082;5.108;2023-03-01T14:37:47;6.68;;;3.50;;
69912;SDS011;57198;52.082;5.108;2023-03-01T14:40:35;5.15;;;3.38;;
69912;SDS011;57198;52.082;5.108;2023-03-01T14:43:08;4.27;;;3.67;;
69912;SDS011;57198;52.082;5.108;2023-03-01T14:45:37;7.70;;;4.03;;
69912;SDS011;57198;52.082;5.108;2023-03-01T14:48:05;3.28;;;2.97;;
69912;SDS011;57198;52.082;5.108;2023-03-01T14:50:34;3.65;;;3.30;;
69912;SDS011;57198;52.082;5.108;2023-03-01T14:53:03;4.85;;;3.10;;
69912;SDS011;57198;52.082;5.108;2023-03-01T14:55:38;6.37;;;3.30;;
69912;SDS011;57198;52.082;5.108;2023-03-01T14:58:15;4.28;;;3.33;;
69912;SDS011;57198;52.082;5.108;2023-03-01T15:00:46;4.00;;;3.40;;
69912;SDS011;57198;52.082;5.108;2023-03-01T15:03:35;4.60;;;3.15;;
69912;SDS011;57198;52.082;5.108;2023-03-01T15:06:06;4.28;;;3.25;;
69912;SDS011;57198;52.082;5.108;2023-03-01T15:08:35;4.57;;;3.40;;
69912;SDS011;57198;52.082;5.108;2023-03-01T15:11:20;3.60;;;3.30;;
69912;SDS011;57198;52.082;5.108;2023-03-01T15:13:49;4.53;;;3.55;;
69912;SDS011;57198;52.082;5.108;2023-03-01T15:16:30;5.25;;;3.42;;
69912;SDS011;57198;52.082;5.108;2023-03-01T15:19:02;3.03;;;2.83;;
69912;SDS011;57198;52.082;5.108;2023-03-01T15:21:37;5.27;;;3.40;;
69912;SDS011;57198;52.082;5.108;2023-03-01T15:24:06;6.55;;;3.70;;
69912;SDS011;57198;52.082;5.108;2023-03-01T15:26:56;3.65;;;2.90;;
69912;SDS011;57198;52.082;5.108;2023-03-01T15:29:25;5.00;;;3.70;;
69912;SDS011;57198;52.082;5.108;2023-03-01T15:32:00;4.03;;;3.60;;
69912;SDS011;57198;52.082;5.108;2023-03-01T15:34:31;5.37;;;3.63;;
69912;SDS011;57198;52.082;5.108;2023-03-01T15:37:01;4.88;;;4.00;;
69912;SDS011;57198;52.082;5.108;2023-03-01T15:39:33;4.70;;;3.50;;
69912;SDS011;57198;52.082;5.108;2023-03-01T15:42:08;4.97;;;4.00;;
69912;SDS011;57198;52.082;5.108;2023-03-01T15:44:37;6.55;;;4.13;;
69912;SDS011;57198;52.082;5.108;2023-03-01T15:47:23;6.13;;;3.90;;
69912;SDS011;57198;52.082;5.108;2023-03-01T15:49:52;4.60;;;3.60;;
69912;SDS011;57198;52.082;5.108;2023-03-01T15:52:22;4.30;;;3.55;;
69912;SDS011;57198;52.082;5.108;2023-03-01T15:55:01;5.15;;;3.47;;
69912;SDS011;57198;52.082;5.108;2023-03-01T15:57:29;4.30;;;3.90;;
69912;SDS011;57198;52.082;5.108;2023-03-01T15:59:57;4.50;;;3.97;;
69912;SDS011;57198;52.082;5.108;2023-03-01T16:02:24;6.03;;;3.72;;
69912;SDS011;57198;52.082;5.108;2023-03-01T16:04:52;4.47;;;4.05;;
69912;SDS011;57198;52.082;5.108;2023-03-01T16:07:20;4.88;;;4.38;;
69912;SDS011;57198;52.082;5.108;2023-03-01T16:09:47;5.32;;;4.60;;
69912;SDS011;57198;52.082;5.108;2023-03-01T16:12:15;6.50;;;4.97;;
69912;SDS011;57198;52.082;5.108;2023-03-01T16:14:43;5.18;;;3.80;;
69912;SDS011;57198;52.082;5.108;2023-03-01T16:17:10;5.03;;;3.58;;
69912;SDS011;57198;52.082;5.108;2023-03-01T16:19:37;4.35;;;3.95;;
69912;SDS011;57198;52.082;5.108;2023-03-01T16:22:05;3.95;;;3.65;;
69912;SDS011;57198;52.082;5.108;2023-03-01T16:24:32;5.23;;;3.83;;
69912;SDS011;57198;52.082;5.108;2023-03-01T16:27:01;4.65;;;3.63;;
69912;SDS011;57198;52.082;5.108;2023-03-01T16:29:28;4.20;;;3.65;;
69912;SDS011;57198;52.082;5.108;2023-03-01T16:31:56;5.30;;;3.22;;
69912;SDS011;57198;52.082;5.108;2023-03-01T16:34:23;5.95;;;3.97;;
69912;SDS011;57198;52.082;5.108;2023-03-01T16:36:50;5.20;;;4.37;;
69912;SDS011;57198;52.082;5.108;2023-03-01T16:39:18;5.03;;;4.13;;
69912;SDS011;57198;52.082;5.108;2023-03-01T16:41:45;4.25;;;3.85;;
69912;SDS011;57198;52.082;5.108;2023-03-01T16:44:13;5.45;;;4.40;;
69912;SDS011;57198;52.082;5.108;2023-03-01T16:46:41;4.97;;;3.85;;